Flugplatz Hamburg

Bericht für EDDH

vom 22.09. um 19:50 UTC

Wind 5 kt aus 70°

Sichtweite 10 km oder mehr

schwacher Regen

gering bewölkt in 1500 ft

aufgebrochene Bewölkung in 3700 ft

Temperatur 14.0°C

Taupunkt 12.0°C

Luftfeuchtigkeit 88%

Luftdruck 1021 hPa

keine wesentliche Wetteränderung innerhalb den nächsten 2 Stunden zu erwarten

EDDH 221950Z 07005KT 9999 -RA FEW015 BKN037 14/12 Q1021 NOSIG

Prognose für EDDH

vom 22.09. um 17:00 UTC

Zwischen 18:00 UTC und 12:00 UTC

variable Windrichtung mit 3 kt

Sichtweite 10 km oder mehr

keine signifikanten Wettererscheinungen

keine Wolken


Zwischen 21:00 UTC und 09:00 UTC zeitweise

Sichtweite 3500 m

feuchter Dunst


Zwischen 23:00 UTC und 07:00 UTC zeitweise mit einer Wahrscheinlichkeit von 30%

Sichtweite 2000 m

Nebelschwaden


Am 23.09. zwischen 12:00 und 14:00 UTC übergehend zu

Wind 5 kt aus 30°

Sichtweite 10 km oder mehr

keine signifikanten Wettererscheinungen

keine Wolken


Am 23.09. zwischen 21:00 UTC und 00:00 UTC zeitweise

Sichtweite 4500 m

schwacher Sprühregen

aufgebrochene Bewölkung in 1400 ft

TAF EDDH 221700Z 2218/2324 VRB03KT CAVOK TEMPO 2221/2309 3500 BR PROB30 TEMPO 2223/2307 2000 BCFG BECMG 2312/2314 03005KT TEMPO 2321/2324 4500 -DZ BKN014
Impressum